EDT,Max TemperatureF,Mean TemperatureF,Min TemperatureF,Max Dew PointF,MeanDew PointF,Min DewpointF,Max Humidity, Mean Humidity, Min Humidity, Max Sea Level PressureIn, Mean Sea Level PressureIn, Min Sea Level PressureIn, Max VisibilityMiles, Mean VisibilityMiles, Min VisibilityMiles, Max Wind SpeedMPH, Mean Wind SpeedMPH, Max Gust SpeedMPH,PrecipitationIn, CloudCover, Events, WindDirDegrees
2013-3-1,41,36,32,32,31,28,100,86,61,29.97,29.95,29.92,10,8,2,10,4,,0.00,6,Rain,258
2013-3-2,35,30,26,32,25,18,100,77,60,30.05,29.97,29.91,10,9,3,10,3,16,0.00,8,Rain,314
2013-3-3,32,28,24,23,19,12,93,69,44,30.08,30.05,30.02,10,9,3,10,3,,0.18,7,Rain-Snow,287
2013-3-4,48,32,15,28,19,14,100,64,29,30.19,30.10,30.03,10,10,10,6,0,,0.00,2,Rain,259
2013-3-5,44,38,32,45,36,28,100,92,70,30.04,29.85,29.61,10,6,1,20,2,33,1.64,6,Rain-Snow,294
2013-3-6,32,30,28,28,26,23,93,82,69,30.25,30.03,29.80,10,6,1,15,9,21,1.49,6,Rain-Snow,271
2013-3-7,33,32,32,27,26,25,80,77,75,30.36,30.31,30.22,10,10,9,7,2,,0.00,8,,329
2013-3-8,48,36,23,28,25,23,100,68,37,30.42,30.36,30.32,10,10,7,7,1,,0.00,3,,8
2013-3-9,64,44,23,37,28,23,100,64,21,30.35,30.26,30.18,10,10,8,10,1,,0.00,0,,261
2013-3-10,71,55,39,37,32,28,93,47,23,30.19,30.11,30.03,10,10,10,14,3,23,0.00,0,,127
2013-3-11,62,55,48,54,45,32,100,70,36,30.04,29.89,29.80,10,8,2,18,9,26,0.45,4,Rain,165
2013-3-12,48,40,32,45,33,28,100,77,46,30.09,30.00,29.88,10,10,2,12,4,,0.02,5,Rain,280
2013-3-13,39,32,26,32,22,14,100,66,38,30.31,30.17,30.06,10,10,2,17,5,26,0.04,6,Rain-Snow,289
2013-3-14,46,35,24,21,16,10,69,49,25,30.38,30.30,30.23,10,10,10,13,5,16,0.00,4,Snow,278
2013-3-15,62,43,24,43,30,18,93,61,34,30.25,30.07,29.91,10,10,10,13,3,16,0.00,2,Rain,242
2013-3-16,73,57,41,48,45,41,100,68,36,29.93,29.85,29.76,10,10,9,17,4,28,0.00,4,Rain,247
2013-3-17,60,54,46,54,49,45,100,83,63,30.01,29.95,29.89,10,8,1,9,2,,0.07,7,Rain,51
2013-3-18,53,48,42,50,47,41,100,94,76,29.94,29.87,29.80,10,8,2,9,3,16,0.89,6,Rain-Thunderstorm,69
2013-3-19,53,44,35,50,26,7,100,53,17,30.14,30.04,29.85,10,10,2,20,9,29,0.03,2,Rain,276
2013-3-20,51,37,23,32,15,10,86,42,20,30.13,30.04,29.87,10,10,10,18,4,26,0.00,2,Rain,274
2013-3-21,35,28,21,14,9,5,59,44,30,30.02,29.96,29.93,10,10,10,13,6,21,0.00,4,,306
2013-3-22,41,28,15,23,14,9,93,56,26,30.09,30.04,30.01,10,10,10,8,0,,0.00,4,,235
2013-3-23,53,44,35,37,29,21,76,58,44,30.04,29.97,29.82,10,10,10,7,0,,0.00,6,Rain,81
2013-3-24,48,44,39,46,42,32,100,90,54,29.83,29.61,29.37,10,6,1,20,5,28,1.19,6,Rain-Thunderstorm,57
2013-3-25,39,34,30,36,29,27,100,87,70,29.96,29.73,29.54,10,4,0,21,12,32,7.05,6,Rain-Snow,252
2013-3-26,35,32,30,32,29,27,100,86,70,30.26,30.10,29.97,10,8,3,10,6,,0.43,8,Rain-Snow,261
2013-3-27,41,36,28,28,24,19,93,67,45,30.34,30.29,30.24,10,10,9,10,4,,0.01,7,Rain-Snow,279
2013-3-28,50,36,21,28,24,19,100,69,35,30.35,30.31,30.27,10,10,10,9,1,,0.00,0,,301
2013-3-29,48,36,23,39,29,21,100,78,34,30.36,30.31,30.26,10,10,5,15,2,16,0.00,4,Rain-Thunderstorm,236
2013-3-30,57,44,32,43,38,32,100,77,48,30.26,30.17,30.04,10,7,0,7,1,,0.00,5,Fog-Rain,239
2013-3-31,59,52,44,54,49,45,100,95,67,30.04,29.91,29.86,10,6,0,10,2,,0.52,7,Fog-Rain,276